Time;durP1;ratioP1;P1;durP2;ratioP2;P2;SDS_P1;SDS_P2;PMS_P1;PMS_P2;Temp;Humidity;BMP_temperature;BMP_pressure;BME280_temperature;BME280_humidity;BME280_pressure;Samples;Min_cycle;Max_cycle;Signal;HPM_P1;HPM_P2
2020/12/08 00:02:15;;;;;;;;;;;;;;;1.97;97.43;92663.94;5052929;28;19920;-90
2020/12/08 00:04:42;;;;;;;;;;;;;;;1.86;98.80;92670.19;5047099;28;19921;-91
2020/12/08 00:07:08;;;;;;;;;;;;;;;1.79;100.00;92667.53;5048104;28;19978;-91
2020/12/08 00:09:35;;;;;;;;;;;;;;;1.86;99.32;92672.72;5052351;28;19974;-92
2020/12/08 00:12:01;;;;;;;;;;;;;;;1.85;99.85;92671.91;5053059;28;19925;-90
2020/12/08 00:14:27;;;;;;;;;;;;;;;1.90;99.49;92678.22;5052466;28;19920;-92
2020/12/08 00:16:53;;;;;;;;;;;;;;;1.90;99.54;92675.69;5052951;28;19927;-91
2020/12/08 00:19:19;;;;;;;;;;;;;;;1.86;99.91;92673.50;5052548;28;19921;-91
2020/12/08 00:21:46;;;;;;;;;;;;;;;1.99;100.00;92679.75;5052450;28;19924;-91
2020/12/08 00:24:12;;;;;;;;;;;;;;;2.07;100.00;92692.34;5054165;28;19921;-90
2020/12/08 00:26:39;;;;;;;;;;;;;;;2.22;100.00;92694.91;5054364;28;19921;-91
2020/12/08 00:29:06;;;;;;;;;;;;;;;2.31;100.00;92694.88;5053973;28;19920;-91
2020/12/08 00:31:32;;;;;;;;;;;;;;;2.45;100.00;92701.69;5054842;28;20307;-91
2020/12/08 00:33:58;;;;;;;;;;;;;;;2.53;100.00;92705.91;5053233;28;20287;-92
2020/12/08 00:36:25;;;;;;;;;;;;;;;2.62;99.50;92709.94;5052923;28;19920;-91
2020/12/08 00:38:51;;;;;;;;;;;;;;;2.72;99.75;92703.84;5052435;28;19928;-91
2020/12/08 00:41:17;;;;;;;;;;;;;;;2.79;98.68;92715.63;5052697;28;19978;-91
2020/12/08 00:43:44;;;;;;;;;;;;;;;2.85;98.77;92704.00;5052311;28;19972;-91
2020/12/08 00:46:11;;;;;;;;;;;;;;;2.93;98.42;92711.53;5052363;28;19926;-91
2020/12/08 00:48:37;;;;;;;;;;;;;;;2.94;97.61;92707.25;5052270;28;19933;-91
2020/12/08 00:51:03;;;;;;;;;;;;;;;3.00;97.44;92706.53;5052021;28;19944;-92
2020/12/08 00:53:29;;;;;;;;;;;;;;;3.06;97.28;92715.22;5052064;28;19920;-90
2020/12/08 00:55:55;;;;;;;;;;;;;;;3.06;96.67;92718.53;5051887;28;19935;-90
2020/12/08 00:58:22;;;;;;;;;;;;;;;3.07;97.21;92716.78;5051803;28;19925;-91
2020/12/08 01:00:48;;;;;;;;;;;;;;;3.11;96.63;92717.22;5051878;28;19944;-91
2020/12/08 01:03:14;;;;;;;;;;;;;;;3.14;96.93;92720.19;5058498;28;20417;-92
2020/12/08 01:05:40;;;;;;;;;;;;;;;3.17;96.66;92724.94;5071766;28;20369;-90
2020/12/08 01:08:07;;;;;;;;;;;;;;;3.15;95.24;92721.00;5071695;28;19924;-91
2020/12/08 01:10:33;;;;;;;;;;;;;;;3.17;95.68;92726.66;5071894;28;20313;-90
2020/12/08 01:12:59;;;;;;;;;;;;;;;3.21;95.92;92727.91;5071403;28;19928;-90
2020/12/08 01:15:26;;;;;;;;;;;;;;;3.25;96.10;92723.25;5071789;28;20301;-91
2020/12/08 01:17:52;;;;;;;;;;;;;;;3.07;95.19;92730.25;5071541;28;19921;-90
2020/12/08 01:20:19;;;;;;;;;;;;;;;2.92;96.34;92725.19;5071628;28;19966;-91
2020/12/08 01:22:45;;;;;;;;;;;;;;;2.97;96.79;92722.13;5071565;28;19924;-90
2020/12/08 01:25:11;;;;;;;;;;;;;;;3.08;97.07;92725.97;5071463;28;19990;-92
2020/12/08 01:27:37;;;;;;;;;;;;;;;3.14;97.43;92724.50;5070923;28;20341;-91
2020/12/08 01:30:03;;;;;;;;;;;;;;;3.17;97.25;92724.94;5071414;28;19924;-90
2020/12/08 01:32:29;;;;;;;;;;;;;;;3.18;96.83;92718.88;5071475;28;19921;-91
2020/12/08 01:34:56;;;;;;;;;;;;;;;3.26;96.74;92719.75;5071582;28;19931;-90
2020/12/08 01:37:22;;;;;;;;;;;;;;;3.31;96.18;92723.34;5071489;28;19921;-90
2020/12/08 01:39:48;;;;;;;;;;;;;;;3.34;95.92;92725.50;5071656;28;19943;-90
2020/12/08 01:42:14;;;;;;;;;;;;;;;3.34;95.84;92729.81;5071314;28;19920;-90
2020/12/08 01:44:45;;;;;;;;;;;;;;;3.34;96.17;92728.06;5071228;28;19933;-90
2020/12/08 01:47:12;;;;;;;;;;;;;;;3.37;95.77;92724.38;5071273;28;19970;-91
2020/12/08 01:49:38;;;;;;;;;;;;;;;3.37;95.78;92721.84;5071048;28;20362;-91
2020/12/08 01:52:22;;;;;;;;;;;;;;;3.41;96.17;92730.69;5075435;28;19920;-90
2020/12/08 01:54:51;;;;;;;;;;;;;;;3.41;95.50;92723.06;5075321;28;19970;-91
2020/12/08 01:57:17;;;;;;;;;;;;;;;3.42;95.71;92718.78;5075219;28;19920;-90
2020/12/08 01:59:43;;;;;;;;;;;;;;;3.45;95.77;92728.56;5075308;28;19920;-89
2020/12/08 02:02:09;;;;;;;;;;;;;;;3.39;94.48;92719.13;5075084;28;19931;-90
2020/12/08 02:04:36;;;;;;;;;;;;;;;3.34;95.39;92717.13;5093333;28;20305;-89
2020/12/08 02:07:02;;;;;;;;;;;;;;;3.38;95.49;92717.56;5084703;28;19981;-90
2020/12/08 02:09:28;;;;;;;;;;;;;;;3.40;95.42;92718.16;5075130;28;19920;-90
2020/12/08 02:11:55;;;;;;;;;;;;;;;3.42;95.32;92713.69;5075136;28;19921;-91
2020/12/08 02:14:21;;;;;;;;;;;;;;;3.46;95.06;92719.97;5074779;28;20267;-90
2020/12/08 02:16:47;;;;;;;;;;;;;;;3.48;95.54;92718.84;5074930;28;19970;-92
2020/12/08 02:19:13;;;;;;;;;;;;;;;3.48;95.60;92710.44;5074591;28;19920;-90
2020/12/08 02:21:40;;;;;;;;;;;;;;;3.43;95.11;92705.88;5074542;28;19920;-90
2020/12/08 02:24:07;;;;;;;;;;;;;;;3.36;95.54;92709.31;5075075;28;19927;-89
2020/12/08 02:26:33;;;;;;;;;;;;;;;3.37;95.54;92706.59;5075000;28;20015;-90
2020/12/08 02:28:59;;;;;;;;;;;;;;;3.34;95.63;92707.75;5074989;28;19924;-89
2020/12/08 02:31:25;;;;;;;;;;;;;;;3.34;95.30;92717.91;5074587;28;19920;-91
2020/12/08 02:33:51;;;;;;;;;;;;;;;3.35;95.56;92716.16;5074395;28;19920;-90
2020/12/08 02:36:17;;;;;;;;;;;;;;;3.34;95.00;92714.59;5074293;28;20378;-90
2020/12/08 02:38:44;;;;;;;;;;;;;;;3.31;95.43;92713.19;5074415;28;20298;-91
2020/12/08 02:41:10;;;;;;;;;;;;;;;3.29;94.88;92716.88;5074696;28;19924;-90
2020/12/08 02:43:36;;;;;;;;;;;;;;;3.25;94.71;92715.63;5074482;28;19924;-90
2020/12/08 02:46:02;;;;;;;;;;;;;;;3.23;95.26;92710.72;5074299;28;19920;-90
2020/12/08 02:48:29;;;;;;;;;;;;;;;3.15;95.16;92708.31;5074205;28;19924;-91
2020/12/08 02:50:54;;;;;;;;;;;;;;;3.16;95.10;92695.41;5074451;28;19920;-91
2020/12/08 02:53:20;;;;;;;;;;;;;;;3.15;95.62;92700.69;5074300;28;19921;-90
2020/12/08 02:55:47;;;;;;;;;;;;;;;3.15;95.74;92696.38;5074072;28;20268;-91
2020/12/08 02:58:13;;;;;;;;;;;;;;;3.15;94.92;92705.75;5073931;28;19920;-91
2020/12/08 03:00:39;;;;;;;;;;;;;;;3.09;94.93;92707.25;5074256;28;19921;-90
2020/12/08 03:03:06;;;;;;;;;;;;;;;3.02;94.80;92709.69;5073914;28;19931;-90
2020/12/08 03:05:32;;;;;;;;;;;;;;;2.89;94.90;92712.84;5074020;28;20366;-92
2020/12/08 03:07:58;;;;;;;;;;;;;;;2.66;95.79;92718.78;5073809;28;19924;-91
2020/12/08 03:10:24;;;;;;;;;;;;;;;2.57;95.96;92716.47;5073956;28;20397;-91
2020/12/08 03:12:50;;;;;;;;;;;;;;;2.41;97.13;92710.63;5073870;28;20320;-91
2020/12/08 03:15:16;;;;;;;;;;;;;;;2.27;97.74;92709.63;5073902;28;19927;-90
2020/12/08 03:17:43;;;;;;;;;;;;;;;2.19;98.06;92705.41;5073725;28;19921;-91
2020/12/08 03:20:09;;;;;;;;;;;;;;;2.21;98.10;92718.69;5073707;28;19920;-90
2020/12/08 03:22:35;;;;;;;;;;;;;;;2.22;97.62;92722.78;5073820;28;19927;-90
2020/12/08 03:25:01;;;;;;;;;;;;;;;2.25;96.88;92719.13;5073546;28;20015;-90
2020/12/08 03:27:27;;;;;;;;;;;;;;;2.11;97.96;92723.19;5073857;28;19921;-91
2020/12/08 03:29:54;;;;;;;;;;;;;;;2.03;98.18;92725.81;5074141;28;20954;-91
2020/12/08 03:32:20;;;;;;;;;;;;;;;1.98;97.88;92724.56;5073702;28;19966;-92
2020/12/08 03:34:47;;;;;;;;;;;;;;;1.81;98.99;92725.63;5073794;28;19927;-90
2020/12/08 03:37:13;;;;;;;;;;;;;;;1.77;99.52;92730.25;5074149;28;19928;-90
2020/12/08 03:39:39;;;;;;;;;;;;;;;1.59;100.00;92727.97;5073493;28;19927;-92
2020/12/08 03:42:05;;;;;;;;;;;;;;;1.62;100.00;92729.38;5074719;28;19920;-90
2020/12/08 03:44:32;;;;;;;;;;;;;;;1.26;100.00;92733.97;5074410;28;19921;-90
2020/12/08 03:46:59;;;;;;;;;;;;;;;1.45;100.00;92737.81;5073444;28;20295;-92
2020/12/08 03:49:26;;;;;;;;;;;;;;;1.65;100.00;92739.16;5073093;28;19932;-91
2020/12/08 03:51:52;;;;;;;;;;;;;;;1.44;100.00;92743.06;5073237;28;19935;-92
2020/12/08 03:54:18;;;;;;;;;;;;;;;1.61;100.00;92741.22;5073273;28;19924;-91
2020/12/08 03:56:45;;;;;;;;;;;;;;;1.67;99.79;92745.63;5072833;28;20378;-92
2020/12/08 03:59:16;;;;;;;;;;;;;;;1.71;99.14;92748.63;5072847;28;19950;-92
2020/12/08 04:01:42;;;;;;;;;;;;;;;1.75;98.77;92747.31;5072973;28;20356;-90
2020/12/08 04:04:09;;;;;;;;;;;;;;;1.78;99.20;92743.66;5058677;28;19966;-92
2020/12/08 04:06:35;;;;;;;;;;;;;;;1.78;99.97;92747.00;5059233;28;20389;-92
2020/12/08 04:09:01;;;;;;;;;;;;;;;1.84;99.53;92753.94;5072743;28;19966;-92
2020/12/08 04:11:27;;;;;;;;;;;;;;;1.92;100.00;92759.88;5072905;28;19920;-90
2020/12/08 04:13:53;;;;;;;;;;;;;;;1.94;99.85;92755.47;5072730;28;20253;-91
2020/12/08 04:16:19;;;;;;;;;;;;;;;1.99;99.58;92755.75;5072612;28;19921;-91
2020/12/08 04:18:45;;;;;;;;;;;;;;;1.73;97.88;92757.59;5072864;28;19924;-91
2020/12/08 04:21:18;;;;;;;;;;;;;;;1.20;98.77;92762.44;5072692;28;19966;-91
2020/12/08 04:23:45;;;;;;;;;;;;;;;0.67;100.00;92765.41;5072598;28;19958;-91
2020/12/08 04:26:11;;;;;;;;;;;;;;;0.44;100.00;92768.59;5072625;28;19920;-90
2020/12/08 04:28:37;;;;;;;;;;;;;;;0.56;100.00;92769.06;5072451;28;19920;-91
2020/12/08 04:31:03;;;;;;;;;;;;;;;0.50;100.00;92769.66;5054485;28;19928;-91
2020/12/08 04:33:29;;;;;;;;;;;;;;;0.65;100.00;92772.38;5072364;28;20256;-91
2020/12/08 04:35:55;;;;;;;;;;;;;;;0.90;100.00;92770.59;5072181;28;19931;-91
2020/12/08 04:38:22;;;;;;;;;;;;;;;0.68;100.00;92769.50;5072330;28;19920;-91
2020/12/08 04:40:48;;;;;;;;;;;;;;;0.50;100.00;92770.47;5072215;28;19921;-89
2020/12/08 04:43:15;;;;;;;;;;;;;;;0.31;100.00;92766.53;5071729;28;20390;-92
2020/12/08 04:45:41;;;;;;;;;;;;;;;0.48;100.00;92772.38;5071942;28;19920;-91
2020/12/08 04:48:07;;;;;;;;;;;;;;;0.43;100.00;92767.00;5071810;28;19920;-92
2020/12/08 04:50:33;;;;;;;;;;;;;;;0.46;100.00;92768.44;5071928;28;19927;-91
2020/12/08 04:52:59;;;;;;;;;;;;;;;0.60;100.00;92761.94;5071741;28;19921;-93
2020/12/08 04:55:27;;;;;;;;;;;;;;;0.30;100.00;92757.38;5071768;28;19926;-92
2020/12/08 04:57:54;;;;;;;;;;;;;;;0.13;100.00;92762.41;5056572;28;19927;-92
2020/12/08 05:00:20;;;;;;;;;;;;;;;-0.12;100.00;92760.78;5052156;28;19928;-90
2020/12/08 05:02:46;;;;;;;;;;;;;;;0.07;100.00;92762.25;5054469;28;20326;-91
2020/12/08 05:05:12;;;;;;;;;;;;;;;-0.01;100.00;92765.53;5052651;28;19921;-92
2020/12/08 05:07:38;;;;;;;;;;;;;;;0.03;100.00;92773.59;5051560;28;19956;-92
2020/12/08 05:10:04;;;;;;;;;;;;;;;0.24;100.00;92776.47;5067928;28;19928;-91
2020/12/08 05:12:31;;;;;;;;;;;;;;;0.46;100.00;92781.84;5073519;28;20286;-91
2020/12/08 05:14:57;;;;;;;;;;;;;;;0.32;100.00;92785.78;5091764;28;20267;-91
2020/12/08 05:17:24;;;;;;;;;;;;;;;0.17;100.00;92795.72;5091633;28;20354;-91
2020/12/08 05:20:01;;;;;;;;;;;;;;;0.22;100.00;92796.03;5091538;28;19928;-92
2020/12/08 05:22:27;;;;;;;;;;;;;;;0.48;100.00;92795.13;5091723;28;19920;-91
2020/12/08 05:24:53;;;;;;;;;;;;;;;0.38;100.00;92797.00;5072784;28;19966;-91
2020/12/08 05:27:19;;;;;;;;;;;;;;;0.63;100.00;92800.31;5071396;28;19924;-91
2020/12/08 05:29:46;;;;;;;;;;;;;;;0.82;100.00;92792.56;5071877;28;19967;-92
2020/12/08 05:32:22;;;;;;;;;;;;;;;1.01;100.00;92799.00;5071621;28;19920;-91
2020/12/08 05:34:51;;;;;;;;;;;;;;;1.16;100.00;92806.72;5074080;28;19920;-92
2020/12/08 05:37:18;;;;;;;;;;;;;;;1.28;100.00;92807.16;5071874;28;19965;-92
2020/12/08 05:39:45;;;;;;;;;;;;;;;1.23;100.00;92789.94;5072082;28;19920;-91
2020/12/08 05:42:16;;;;;;;;;;;;;;;1.17;100.00;92781.25;5071649;28;19966;-91
2020/12/08 05:44:46;;;;;;;;;;;;;;;1.15;100.00;92790.75;5071573;28;19924;-90
2020/12/08 05:47:16;;;;;;;;;;;;;;;1.13;100.00;92790.13;5071643;28;19921;-91
2020/12/08 05:49:42;;;;;;;;;;;;;;;1.13;100.00;92795.19;5071561;28;19928;-91
2020/12/08 05:52:08;;;;;;;;;;;;;;;1.24;100.00;92788.22;5071256;28;19920;-90
2020/12/08 05:54:34;;;;;;;;;;;;;;;1.37;100.00;92785.16;5071793;28;19924;-91
2020/12/08 05:57:12;;;;;;;;;;;;;;;1.45;100.00;92785.91;5071509;28;19968;-92
2020/12/08 05:59:38;;;;;;;;;;;;;;;1.54;100.00;92785.88;5071206;28;19920;-91
2020/12/08 06:02:04;;;;;;;;;;;;;;;1.60;100.00;92796.16;5071172;28;19924;-90
2020/12/08 06:04:39;;;;;;;;;;;;;;;1.67;100.00;92798.78;5071318;28;19966;-92
2020/12/08 06:07:05;;;;;;;;;;;;;;;1.75;100.00;92799.72;5071502;28;19962;-92
2020/12/08 06:09:33;;;;;;;;;;;;;;;1.80;100.00;92800.03;5071224;28;19927;-92
2020/12/08 06:12:01;;;;;;;;;;;;;;;1.86;100.00;92809.50;5071323;28;19920;-91
2020/12/08 06:14:31;;;;;;;;;;;;;;;1.77;100.00;92816.34;5071523;28;20011;-93
2020/12/08 06:17:01;;;;;;;;;;;;;;;1.32;100.00;92826.94;5071091;28;19924;-92
2020/12/08 06:19:27;;;;;;;;;;;;;;;1.46;100.00;92835.59;5071245;28;19927;-91
2020/12/08 06:21:54;;;;;;;;;;;;;;;1.53;100.00;92832.41;5071207;28;19931;-92
2020/12/08 06:24:20;;;;;;;;;;;;;;;1.58;100.00;92836.00;5075136;28;19920;-93
2020/12/08 06:26:46;;;;;;;;;;;;;;;1.72;100.00;92833.75;5072174;28;19967;-92
2020/12/08 06:29:12;;;;;;;;;;;;;;;1.85;100.00;92835.78;5072098;28;20374;-91
2020/12/08 06:31:42;;;;;;;;;;;;;;;1.83;100.00;92832.59;5072546;28;19980;-92
2020/12/08 06:34:09;;;;;;;;;;;;;;;1.85;100.00;92833.25;5072880;28;19924;-91
2020/12/08 06:36:35;;;;;;;;;;;;;;;1.80;100.00;92843.06;5073459;28;19920;-92
2020/12/08 06:39:03;;;;;;;;;;;;;;;1.93;100.00;92847.59;5067287;28;19930;-91
2020/12/08 06:41:30;;;;;;;;;;;;;;;2.06;100.00;92844.53;5075254;28;19920;-91
2020/12/08 06:43:56;;;;;;;;;;;;;;;2.18;100.00;92850.78;5075656;28;19951;-91
2020/12/08 06:46:22;;;;;;;;;;;;;;;2.27;100.00;92859.94;5075243;28;19920;-91
2020/12/08 06:48:58;;;;;;;;;;;;;;;2.37;100.00;92852.09;5075521;28;19920;-92
2020/12/08 06:51:24;;;;;;;;;;;;;;;2.44;100.00;92869.19;5078600;28;19928;-92
2020/12/08 06:53:50;;;;;;;;;;;;;;;2.46;100.00;92860.44;5076040;28;20366;-90
2020/12/08 06:56:26;;;;;;;;;;;;;;;2.51;100.00;92870.88;5074643;28;19970;-89
2020/12/08 06:58:52;;;;;;;;;;;;;;;2.41;100.00;92867.78;5074467;28;19970;-89
2020/12/08 07:01:18;;;;;;;;;;;;;;;2.44;100.00;92879.34;5074155;28;20378;-89
2020/12/08 07:03:44;;;;;;;;;;;;;;;2.56;100.00;92875.44;5074705;28;19920;-90
2020/12/08 07:06:10;;;;;;;;;;;;;;;2.60;100.00;92879.22;5075105;28;19921;-90
2020/12/08 07:08:37;;;;;;;;;;;;;;;2.64;100.00;92883.00;5074315;28;19920;-89
2020/12/08 07:11:04;;;;;;;;;;;;;;;2.66;100.00;92885.38;5074005;28;19928;-89
2020/12/08 07:13:31;;;;;;;;;;;;;;;2.69;100.00;92890.13;5074257;28;19920;-89
2020/12/08 07:15:57;;;;;;;;;;;;;;;2.65;100.00;92897.25;5074326;28;20333;-89
2020/12/08 07:18:23;;;;;;;;;;;;;;;2.64;100.00;92893.13;5074203;28;19921;-89
2020/12/08 07:20:49;;;;;;;;;;;;;;;2.73;100.00;92898.16;5074022;28;19924;-90
2020/12/08 07:23:15;;;;;;;;;;;;;;;2.81;100.00;92903.16;5073980;28;19927;-90
2020/12/08 07:25:41;;;;;;;;;;;;;;;2.79;100.00;92903.34;5074258;28;19966;-89
2020/12/08 07:28:07;;;;;;;;;;;;;;;2.81;100.00;92903.16;5074208;28;19924;-89
2020/12/08 07:30:34;;;;;;;;;;;;;;;2.85;100.00;92906.97;5073860;28;19920;-90
2020/12/08 07:33:10;;;;;;;;;;;;;;;2.86;100.00;92910.28;5073922;28;19920;-90
2020/12/08 07:35:36;;;;;;;;;;;;;;;2.86;100.00;92908.53;5073986;28;19927;-90
2020/12/08 07:38:03;;;;;;;;;;;;;;;2.89;100.00;92910.75;5073668;28;20326;-89
2020/12/08 07:40:30;;;;;;;;;;;;;;;2.91;100.00;92915.63;5073696;28;19920;-89
2020/12/08 07:42:56;;;;;;;;;;;;;;;2.93;100.00;92908.66;5073926;28;20280;-90
2020/12/08 07:45:23;;;;;;;;;;;;;;;2.91;100.00;92913.88;5073728;28;19920;-91
2020/12/08 07:47:53;;;;;;;;;;;;;;;2.86;100.00;92913.59;5072747;28;19920;-89
2020/12/08 07:50:20;;;;;;;;;;;;;;;2.78;100.00;92906.06;5073516;28;19975;-90
2020/12/08 07:52:53;;;;;;;;;;;;;;;2.80;100.00;92910.00;5072825;28;19930;-90
2020/12/08 07:55:19;;;;;;;;;;;;;;;2.85;100.00;92906.16;5074132;28;19924;-90
2020/12/08 07:57:45;;;;;;;;;;;;;;;2.94;100.00;92900.06;5073156;28;20282;-89
2020/12/08 08:00:11;;;;;;;;;;;;;;;3.03;100.00;92903.34;5073750;28;19928;-90
2020/12/08 08:05:41;;;;;;;;;;;;;;;3.15;100.00;92909.56;5073047;28;19927;-91
2020/12/08 08:08:07;;;;;;;;;;;;;;;3.19;99.93;92912.56;5073206;28;20389;-90
2020/12/08 08:10:33;;;;;;;;;;;;;;;3.25;100.00;92909.34;5073334;28;19921;-91
2020/12/08 08:13:00;;;;;;;;;;;;;;;3.32;100.00;92917.03;5073619;28;19927;-91
2020/12/08 08:15:26;;;;;;;;;;;;;;;3.33;98.97;92914.34;5073427;28;19920;-91
2020/12/08 08:17:52;;;;;;;;;;;;;;;3.23;97.21;92918.88;5073782;28;19928;-90
2020/12/08 08:20:18;;;;;;;;;;;;;;;3.27;98.76;92926.94;5074693;28;19942;-90
2020/12/08 08:22:45;;;;;;;;;;;;;;;3.37;99.30;92930.03;5072927;28;19927;-91
2020/12/08 08:25:11;;;;;;;;;;;;;;;3.39;98.71;92932.38;5073071;28;20347;-90
2020/12/08 08:27:37;;;;;;;;;;;;;;;3.41;98.36;92933.81;5073179;28;20400;-92
2020/12/08 08:30:04;;;;;;;;;;;;;;;3.51;98.82;92933.53;5072696;28;19920;-92
2020/12/08 08:32:30;;;;;;;;;;;;;;;3.46;98.64;92928.19;5072523;28;20298;-92
2020/12/08 08:34:56;;;;;;;;;;;;;;;3.54;98.78;92930.66;5073409;28;20366;-91
2020/12/08 08:37:22;;;;;;;;;;;;;;;3.66;98.04;92930.25;5073020;28;20400;-91
2020/12/08 08:39:49;;;;;;;;;;;;;;;3.76;98.51;92927.44;5073024;28;19920;-91
2020/12/08 08:42:16;;;;;;;;;;;;;;;3.84;97.07;92929.91;5073127;28;19921;-91
2020/12/08 08:44:42;;;;;;;;;;;;;;;3.92;97.52;92937.44;5072803;28;19921;-90
2020/12/08 08:47:08;;;;;;;;;;;;;;;3.98;97.85;92936.72;5073392;28;20278;-90
2020/12/08 08:49:34;;;;;;;;;;;;;;;4.10;97.71;92943.91;5072760;28;19920;-91
2020/12/08 08:52:00;;;;;;;;;;;;;;;3.82;97.01;92936.91;5073035;28;19932;-92
2020/12/08 08:54:26;;;;;;;;;;;;;;;3.86;97.38;92943.22;5072889;28;19920;-91
2020/12/08 08:56:55;;;;;;;;;;;;;;;3.99;96.84;92940.06;5072782;28;19920;-91
2020/12/08 08:59:21;;;;;;;;;;;;;;;4.13;96.64;92930.88;5072859;28;19920;-90
2020/12/08 09:01:47;;;;;;;;;;;;;;;4.20;97.02;92930.94;5072864;28;19924;-91
2020/12/08 09:04:13;;;;;;;;;;;;;;;4.27;96.19;92926.72;5073097;28;19960;-90
2020/12/08 09:06:39;;;;;;;;;;;;;;;4.28;95.86;92925.75;5074472;28;19990;-90
2020/12/08 09:09:05;;;;;;;;;;;;;;;4.27;96.44;92930.03;5072632;28;19967;-91
2020/12/08 09:11:32;;;;;;;;;;;;;;;4.47;96.55;92932.03;5072662;28;19920;-91
2020/12/08 09:13:59;;;;;;;;;;;;;;;4.61;96.01;92922.78;5072587;28;19924;-91
2020/12/08 09:16:25;;;;;;;;;;;;;;;4.67;95.01;92924.63;5072428;28;19966;-90
2020/12/08 09:18:52;;;;;;;;;;;;;;;4.76;93.81;92917.66;5072717;28;19921;-92
2020/12/08 09:21:18;;;;;;;;;;;;;;;4.80;93.62;92913.00;5074131;28;19927;-91
2020/12/08 09:23:44;;;;;;;;;;;;;;;4.81;93.94;92910.28;5072168;28;20424;-91
2020/12/08 09:26:10;;;;;;;;;;;;;;;4.84;93.89;92906.56;5072877;28;19970;-91
2020/12/08 09:28:36;;;;;;;;;;;;;;;4.92;93.09;92901.34;5072256;28;19928;-90
2020/12/08 09:31:03;;;;;;;;;;;;;;;4.97;93.69;92898.28;5072633;28;19920;-90
2020/12/08 09:33:29;;;;;;;;;;;;;;;5.04;94.17;92900.84;5072365;28;19943;-91
2020/12/08 09:35:56;;;;;;;;;;;;;;;5.07;93.77;92908.94;5073078;28;20377;-89
2020/12/08 09:38:22;;;;;;;;;;;;;;;5.13;93.36;92901.53;5088696;28;20435;-89
2020/12/08 09:40:48;;;;;;;;;;;;;;;5.03;91.25;92902.63;5095197;28;19973;-89
2020/12/08 09:43:14;;;;;;;;;;;;;;;4.84;92.20;92895.59;5094142;28;19920;-89
2020/12/08 09:46:02;;;;;;;;;;;;;;;4.68;93.17;92889.81;5093981;28;19930;-89
2020/12/08 09:48:29;;;;;;;;;;;;;;;4.73;93.84;92887.50;5094148;28;19926;-89
2020/12/08 09:50:55;;;;;;;;;;;;;;;4.86;94.46;92886.81;5093774;28;19926;-89
2020/12/08 09:53:21;;;;;;;;;;;;;;;5.01;95.07;92896.94;5093590;28;19920;-90
2020/12/08 09:55:48;;;;;;;;;;;;;;;5.16;94.54;92901.16;5093851;28;19931;-90
2020/12/08 09:58:15;;;;;;;;;;;;;;;5.31;94.59;92895.97;5079276;28;19967;-90
2020/12/08 10:00:42;;;;;;;;;;;;;;;5.43;94.17;92897.06;5073795;28;19920;-90
2020/12/08 10:03:08;;;;;;;;;;;;;;;5.57;93.66;92895.41;5073157;28;20374;-89
2020/12/08 10:05:35;;;;;;;;;;;;;;;5.64;91.59;92897.97;5074029;28;20321;-89
2020/12/08 10:08:01;;;;;;;;;;;;;;;5.73;92.71;92889.22;5073987;28;19920;-90
2020/12/08 10:10:27;;;;;;;;;;;;;;;5.15;92.42;92892.75;5072677;28;19975;-89
2020/12/08 10:12:53;;;;;;;;;;;;;;;5.18;94.98;92892.38;5077339;28;19920;-89
2020/12/08 10:15:20;;;;;;;;;;;;;;;5.33;93.73;92892.28;5077378;28;19927;-88
2020/12/08 10:17:46;;;;;;;;;;;;;;;5.40;94.00;92882.16;5077295;28;20010;-89
2020/12/08 10:23:18;;;;;;;;;;;;;;;5.38;91.93;92879.00;5077416;28;19923;-89
2020/12/08 10:25:50;;;;;;;;;;;;;;;5.38;94.31;92883.31;5078044;28;19920;-89
2020/12/08 10:28:16;;;;;;;;;;;;;;;5.07;95.30;92880.94;5077020;28;20443;-89
2020/12/08 10:30:42;;;;;;;;;;;;;;;5.30;95.54;92879.13;5077166;28;19943;-89
2020/12/08 10:33:08;;;;;;;;;;;;;;;5.29;94.36;92887.75;5076787;28;20270;-90
2020/12/08 10:35:34;;;;;;;;;;;;;;;5.38;94.15;92886.66;5076169;28;19921;-90
2020/12/08 10:38:00;;;;;;;;;;;;;;;5.41;93.70;92885.50;5077834;28;19930;-89
2020/12/08 10:40:27;;;;;;;;;;;;;;;5.53;94.14;92888.28;5077576;28;19956;-90
2020/12/08 10:42:53;;;;;;;;;;;;;;;5.59;94.81;92892.66;5077390;28;19921;-90
2020/12/08 10:45:20;;;;;;;;;;;;;;;5.56;93.98;92888.72;5076339;28;19978;-90
2020/12/08 10:47:46;;;;;;;;;;;;;;;5.43;94.06;92894.53;5076541;28;20375;-90
2020/12/08 10:50:12;;;;;;;;;;;;;;;5.19;96.27;92896.47;5075979;28;20396;-89
2020/12/08 10:55:34;;;;;;;;;;;;;;;5.11;97.97;92891.53;5076995;28;20066;-90
2020/12/08 10:58:00;;;;;;;;;;;;;;;4.72;97.87;92885.91;5076029;28;19978;-90
2020/12/08 11:00:26;;;;;;;;;;;;;;;4.40;99.47;92881.09;5075952;28;20363;-89
2020/12/08 11:02:52;;;;;;;;;;;;;;;4.24;100.00;92887.19;5076256;28;19920;-90
2020/12/08 11:05:18;;;;;;;;;;;;;;;4.58;100.00;92885.00;5075198;28;19924;-91
2020/12/08 11:07:44;;;;;;;;;;;;;;;4.86;100.00;92884.25;5075250;28;19927;-90
2020/12/08 11:10:11;;;;;;;;;;;;;;;5.03;99.73;92879.72;5076608;28;19966;-90
2020/12/08 11:12:38;;;;;;;;;;;;;;;5.23;98.16;92881.63;5076391;28;20262;-89
2020/12/08 11:15:04;;;;;;;;;;;;;;;5.37;97.51;92879.19;5076541;28;20382;-89
2020/12/08 11:17:31;;;;;;;;;;;;;;;5.58;96.71;92881.69;5075320;28;19920;-91
2020/12/08 11:19:57;;;;;;;;;;;;;;;5.58;95.36;92881.69;5074818;28;19924;-89
2020/12/08 11:22:23;;;;;;;;;;;;;;;5.66;94.87;92878.19;5074857;28;19968;-90
2020/12/08 11:24:49;;;;;;;;;;;;;;;5.68;94.71;92878.78;5074521;28;19930;-90
2020/12/08 11:27:16;;;;;;;;;;;;;;;5.66;94.76;92882.50;5076177;28;19920;-90
2020/12/08 11:29:43;;;;;;;;;;;;;;;5.82;94.88;92876.31;5075749;28;19971;-90
2020/12/08 11:32:22;;;;;;;;;;;;;;;5.92;93.92;92881.06;5075931;28;19930;-90
2020/12/08 11:34:48;;;;;;;;;;;;;;;5.89;92.67;92885.56;5075401;28;19920;-90
2020/12/08 11:37:42;;;;;;;;;;;;;;;5.99;93.55;92880.13;5075801;28;19920;-90
2020/12/08 11:40:08;;;;;;;;;;;;;;;6.00;91.37;92891.91;5077552;28;19985;-89
2020/12/08 11:42:34;;;;;;;;;;;;;;;6.12;91.41;92893.94;5076472;28;20430;-89
2020/12/08 11:48:04;;;;;;;;;;;;;;;6.07;91.72;92902.16;5075999;28;19923;-89
2020/12/08 11:50:30;;;;;;;;;;;;;;;6.09;90.86;92896.84;5072461;28;19924;-89
2020/12/08 11:52:56;;;;;;;;;;;;;;;6.10;91.40;92894.13;5075913;28;19920;-89
2020/12/08 11:55:22;;;;;;;;;;;;;;;6.15;91.02;92880.78;5075568;28;20359;-90
2020/12/08 12:07:33;;;;;;;;;;;;;;;6.93;90.23;92871.97;5074988;28;20326;-89
2020/12/08 12:16:13;;;;;;;;;;;;;;;6.48;90.57;92862.25;5076235;28;20015;-90
2020/12/08 12:18:39;;;;;;;;;;;;;;;6.27;92.02;92855.53;5075577;28;19920;-89
2020/12/08 12:21:05;;;;;;;;;;;;;;;6.18;91.68;92847.28;5076032;28;19952;-88
2020/12/08 12:23:37;;;;;;;;;;;;;;;6.01;94.49;92855.22;5065514;28;19960;-89
2020/12/08 12:32:51;;;;;;;;;;;;;;;5.72;94.25;92848.63;5075588;28;19960;-88
2020/12/08 12:35:18;;;;;;;;;;;;;;;5.24;96.95;92837.38;5074274;28;19920;-89
2020/12/08 12:37:44;;;;;;;;;;;;;;;5.16;99.58;92840.84;5094115;28;19952;-89
2020/12/08 12:40:26;;;;;;;;;;;;;;;5.23;98.53;92840.88;5089472;28;19928;-88
2020/12/08 12:49:15;;;;;;;;;;;;;;;5.35;98.78;92843.72;5082630;28;19971;-89
2020/12/08 12:51:42;;;;;;;;;;;;;;;5.34;97.72;92835.28;5081924;28;19972;-89
2020/12/08 12:54:08;;;;;;;;;;;;;;;5.28;98.35;92836.00;5083832;28;20362;-89
2020/12/08 12:56:35;;;;;;;;;;;;;;;5.62;97.80;92846.41;5085650;28;19927;-90
2020/12/08 12:59:01;;;;;;;;;;;;;;;5.77;97.11;92840.41;5075485;28;19921;-90
2020/12/08 13:01:27;;;;;;;;;;;;;;;5.68;96.99;92842.31;5074382;28;20397;-90
2020/12/08 13:03:53;;;;;;;;;;;;;;;5.81;96.77;92844.94;5074122;28;19975;-89
2020/12/08 13:06:19;;;;;;;;;;;;;;;5.60;96.69;92836.41;5074169;28;19968;-90
2020/12/08 13:08:46;;;;;;;;;;;;;;;5.52;98.41;92838.31;5074299;28;19971;-89
2020/12/08 13:11:14;;;;;;;;;;;;;;;5.39;99.10;92833.94;5074128;28;19927;-90
2020/12/08 13:13:40;;;;;;;;;;;;;;;5.22;99.62;92836.75;5073880;28;19928;-89
2020/12/08 13:16:06;;;;;;;;;;;;;;;5.02;100.00;92839.97;5073958;28;19921;-90
2020/12/08 13:18:33;;;;;;;;;;;;;;;5.03;100.00;92838.19;5074183;28;19921;-90
2020/12/08 13:21:00;;;;;;;;;;;;;;;4.94;100.00;92835.00;5074536;28;19943;-89
2020/12/08 13:23:26;;;;;;;;;;;;;;;5.30;100.00;92844.28;5074098;28;19928;-90
2020/12/08 13:26:06;;;;;;;;;;;;;;;5.15;100.00;92846.91;5072323;28;20293;-89
2020/12/08 13:28:32;;;;;;;;;;;;;;;5.29;100.00;92847.81;5071423;28;20278;-89
2020/12/08 13:31:16;;;;;;;;;;;;;;;4.95;100.00;92859.47;5074210;28;19921;-89
2020/12/08 13:34:07;;;;;;;;;;;;;;;5.10;100.00;92848.44;5091426;28;19926;-89